Accueil
METAR-TAF:

METAR-TAF

Aéroports :

Aéroport international de Bahreïn

Bahreïn, Bahreïn

latitude: 26-16N, longitude: 050-39E, altitude: 2 m

Observation

Le bulletin a été fait il y a 8 minutes, à 12:00 UTC
Vent 13 kt de nord/nord-ouest
Température 38°C
Humidité 42%
Pression 996 hPa
Visibilité 10 km ou plus
pas de nuages en-dessous de 1500 mètres et pas de cumulonimbus.

METAR: OBBI 181200Z 34013KT CAVOK 38/23 Q0996 NOSIG

Heure: 15:08 (12:08 UTC)

Prévision

Le bulletin a été fait il y a 1 heure et 8 minutes, à 11:00 UTC
Prévision valable du 18 à 12 UTC au 19 à 18 UTC
Vent 16 kt de nord/nord-ouest
Visibilité 10 km ou plus
pas de nuages en-dessous de 1500 mètres et pas de cumulonimbus.
Evoluant progressivement
du 18 à 16 UTC au 18 à 18 UTC
Vent 10 kt de ouest
Evoluant progressivement
du 19 à 04 UTC au 19 à 06 UTC
Vent 16 kt de nord/nord-ouest

TAF: OBBI 181100Z 1812/1918 34016KT CAVOK BECMG 1816/1818 28010KT BECMG 1904/1906 34016KT

Observations et prévisions météorologiques de plus de 4000 aéroports (messages METAR et TAF).

Les stations disponibles sont représentées par des disques jaunes et rouges sur la carte.

Passer la souris dessus pour voir le nom de la station.

Cliquer dessus pour voir les observations et prévisions météorologiques.

Pour changer de carte: cliquez sur les boutons verts avec une croix noire pour zoomer, sur le bouton vert avec un tiret pour effectuer un zoom arrière, ou sur les flèches vertes pour les cartes adjacentes.


METAR-TAF: